OOCL Oakland — 3EKJ6 — position and weather

sailwx.info

Track history (hours):
 
Tides and Currents Weather Stations Pressure Air Temp Water Temp Dewpoint Dewpoint Depression Visibility Wind Speed Wind Dir Waves Ship Positions

OOCL Oakland

Last reported at 2016-Aug-25 16:31 UTC. Time now 2016-Aug-25 16:46 UTC.
Position N 31°20' E 121°40'.

Length 280 m; draft 11.6 m.

Type: Ship. MMSI: 372703235.

Date/timePositionNaut miles runAvg speedWind from/ knotsBaromVisibWave heightAir tempDewpointWater temp
2016-Aug-25 16:31N 31°20' E 121°40'0 0.0
2016-Aug-25 15:25N 31°20' E 121°40'0 0.0
2016-Aug-25 14:07N 31°20' E 121°40'0 0.0
2016-Aug-25 11:31N 31°20' E 121°40'0 0.0
2016-Aug-25 10:19N 31°20' E 121°40'0 0.0
2016-Aug-25 09:31N 31°20' E 121°40'0 0.0
2016-Aug-25 07:13N 31°20' E 121°40'0 0.1
2016-Aug-25 06:13N 31°20' E 121°40'0 0.0
2016-Aug-25 04:25N 31°20' E 121°40'0 0.0
2016-Aug-25 02:07N 31°20' E 121°40'0 0.0
2016-Aug-25 01:25N 31°20' E 121°40'0 0.0
2016-Aug-24 23:31N 31°20' E 121°40'0 0.0
2016-Aug-24 22:31N 31°20' E 121°40'0 0.0
2016-Aug-24 21:07N 31°20' E 121°40'0 0.0
2016-Aug-24 20:05N 31°20' E 121°40'0 0.8
2016-Aug-24 19:30N 31°20' E 121°40'4 4.0
2016-Aug-24 18:33N 31°19' E 121°44'185 8.7
2016-Aug-23 21:14N 28°16' E 122°19'27813.4
2016-Aug-23 00:33N 24°31' E 119°17'1413.6
2016-Aug-22 23:32N 24°22' E 119°06'2612.8
2016-Aug-22 21:30N 24°04' E 118°45'1312.3
2016-Aug-22 20:26N 23°54' E 118°37'1112.3
2016-Aug-22 19:32N 23°44' E 118°31'4413.7
2016-Aug-22 16:21N 23°18' E 117°53'1814.3
2016-Aug-22 15:05N 23°06' E 117°38'713.8
2016-Aug-22 14:34N 23°01' E 117°32'1413.6
2016-Aug-22 13:33N 22°55' E 117°19'1713.1
2016-Aug-22 12:13N 22°47' E 117°02'1012.3
2016-Aug-22 11:24N 22°42' E 116°52'1618.5
2016-Aug-22 10:33N 22°34' E 116°38'1515.3
2016-Aug-22 09:33N 22°27' E 116°23'10912.9
2016-Aug-22 01:06N 22°07' E 114°27'23 8.9
2016-Aug-21 22:33N 22°19' E 114°06'1 0.8
2016-Aug-21 21:16N 22°19' E 114°07'0 0.0
2016-Aug-21 20:28N 22°19' E 114°07'0 0.0
2016-Aug-21 19:28N 22°19' E 114°07'0 0.0
2016-Aug-21 18:16N 22°19' E 114°07'0 0.0
2016-Aug-21 17:28N 22°19' E 114°07'0 0.0
2016-Aug-21 15:28N 22°19' E 114°07'0 0.0
2016-Aug-21 13:08N 22°19' E 114°07'2 3.7
2016-Aug-21 12:33N 22°18' E 114°06'18 8.8
2016-Aug-21 10:33N 22°08' E 114°22'31010.7
2016-Aug-20 05:31N 22°31' E 119°56'1212.3
2016-Aug-20 04:33N 22°32' E 120°08'1010.2
2016-Aug-20 03:33N 22°33' E 120°19'1 1.3
2016-Aug-20 02:30N 22°34' E 120°18'0 0.0
2016-Aug-20 01:30N 22°34' E 120°18'1 0.2
2016-Aug-19 19:30N 22°33' E 120°19'7 7.1
2016-Aug-19 18:33N 22°31' E 120°12'7 7.4
2016-Aug-19 17:33N 22°25' E 120°08'1414.0
2016-Aug-19 16:33N 22°11' E 120°13'  
Track history (hours):
 
Tides and Currents Weather Stations Pressure Air Temp Water Temp Dewpoint Dewpoint Depression Visibility Wind Speed Wind Dir Waves Ship Positions

OOCL Oakland

Last reported at 2016-Aug-25 16:31 UTC. Time now 2016-Aug-25 16:46 UTC.
Position N 31°20' E 121°40'.

Length 280 m; draft 11.6 m.

Type: Ship. MMSI: 372703235.

Date/timePositionNaut miles runAvg speedWind from/ knotsBaromVisibWave heightAir tempDewpointWater temp
2016-Aug-25 16:31N 31°20' E 121°40'0 0.0
2016-Aug-25 15:25N 31°20' E 121°40'0 0.0
2016-Aug-25 14:07N 31°20' E 121°40'0 0.0
2016-Aug-25 11:31N 31°20' E 121°40'0 0.0
2016-Aug-25 10:19N 31°20' E 121°40'0 0.0
2016-Aug-25 09:31N 31°20' E 121°40'0 0.0
2016-Aug-25 07:13N 31°20' E 121°40'0 0.1
2016-Aug-25 06:13N 31°20' E 121°40'0 0.0
2016-Aug-25 04:25N 31°20' E 121°40'0 0.0
2016-Aug-25 02:07N 31°20' E 121°40'0 0.0
2016-Aug-25 01:25N 31°20' E 121°40'0 0.0
2016-Aug-24 23:31N 31°20' E 121°40'0 0.0
2016-Aug-24 22:31N 31°20' E 121°40'0 0.0
2016-Aug-24 21:07N 31°20' E 121°40'0 0.0
2016-Aug-24 20:05N 31°20' E 121°40'0 0.8
2016-Aug-24 19:30N 31°20' E 121°40'4 4.0
2016-Aug-24 18:33N 31°19' E 121°44'185 8.7
2016-Aug-23 21:14N 28°16' E 122°19'27813.4
2016-Aug-23 00:33N 24°31' E 119°17'1413.6
2016-Aug-22 23:32N 24°22' E 119°06'2612.8
2016-Aug-22 21:30N 24°04' E 118°45'1312.3
2016-Aug-22 20:26N 23°54' E 118°37'1112.3
2016-Aug-22 19:32N 23°44' E 118°31'4413.7
2016-Aug-22 16:21N 23°18' E 117°53'1814.3
2016-Aug-22 15:05N 23°06' E 117°38'713.8
2016-Aug-22 14:34N 23°01' E 117°32'1413.6
2016-Aug-22 13:33N 22°55' E 117°19'1713.1
2016-Aug-22 12:13N 22°47' E 117°02'1012.3
2016-Aug-22 11:24N 22°42' E 116°52'1618.5
2016-Aug-22 10:33N 22°34' E 116°38'1515.3
2016-Aug-22 09:33N 22°27' E 116°23'10912.9
2016-Aug-22 01:06N 22°07' E 114°27'23 8.9
2016-Aug-21 22:33N 22°19' E 114°06'1 0.8
2016-Aug-21 21:16N 22°19' E 114°07'0 0.0
2016-Aug-21 20:28N 22°19' E 114°07'0 0.0
2016-Aug-21 19:28N 22°19' E 114°07'0 0.0
2016-Aug-21 18:16N 22°19' E 114°07'0 0.0
2016-Aug-21 17:28N 22°19' E 114°07'0 0.0
2016-Aug-21 15:28N 22°19' E 114°07'0 0.0
2016-Aug-21 13:08N 22°19' E 114°07'2 3.7
2016-Aug-21 12:33N 22°18' E 114°06'18 8.8
2016-Aug-21 10:33N 22°08' E 114°22'31010.7
2016-Aug-20 05:31N 22°31' E 119°56'1212.3
2016-Aug-20 04:33N 22°32' E 120°08'1010.2
2016-Aug-20 03:33N 22°33' E 120°19'1 1.3
2016-Aug-20 02:30N 22°34' E 120°18'0 0.0
2016-Aug-20 01:30N 22°34' E 120°18'1 0.2
2016-Aug-19 19:30N 22°33' E 120°19'7 7.1
2016-Aug-19 18:33N 22°31' E 120°12'7 7.4
2016-Aug-19 17:33N 22°25' E 120°08'1414.0
2016-Aug-19 16:33N 22°11' E 120°13'  

Dump ship's entire track history